N63006 KBHM-
Flight info
| Callsign | N63006 |
|---|---|
| Flight time | N/A |
| Altitude | VFR |
| Route | VFR S |
| Aircraft | BT36/L-DOV/C |
Departure
| Time | 2026-04-25 00:18 |
|---|---|
| Airport | Birmingham-Shuttlesworth International Airport (KBHM) |
Arrival
| Time | N/A |
|---|---|
| Airport | - |
| Time | Latitude | Longitude | Altitude | Speed | Heading |
|---|---|---|---|---|---|
| 2026-04-25 00:10 | 33.56286 | -86.74900 | 633 ft | 0 kts | 94° |
| 2026-04-25 00:12 | 33.56287 | -86.74884 | 636 ft | 7 kts | 71° |
| 2026-04-25 00:12 | 33.56347 | -86.74851 | 634 ft | 12 kts | 1° |
| 2026-04-25 00:12 | 33.56428 | -86.74851 | 635 ft | 11 kts | 2° |
| 2026-04-25 00:13 | 33.56502 | -86.74851 | 637 ft | 10 kts | 0° |
| 2026-04-25 00:13 | 33.56564 | -86.74852 | 639 ft | 8 kts | 359° |
| 2026-04-25 00:13 | 33.56611 | -86.74845 | 641 ft | 6 kts | 38° |
| 2026-04-25 00:13 | 33.56626 | -86.74823 | 642 ft | 0 kts | 54° |
| 2026-04-25 00:14 | 33.56641 | -86.74794 | 643 ft | 10 kts | 61° |
| 2026-04-25 00:14 | 33.56702 | -86.74680 | 643 ft | 19 kts | 51° |
| 2026-04-25 00:14 | 33.56779 | -86.74552 | 643 ft | 18 kts | 60° |
| 2026-04-25 00:15 | 33.56849 | -86.74427 | 642 ft | 18 kts | 52° |
| 2026-04-25 00:15 | 33.56926 | -86.74299 | 641 ft | 19 kts | 56° |
| 2026-04-25 00:15 | 33.57000 | -86.74171 | 641 ft | 19 kts | 57° |
| 2026-04-25 00:15 | 33.57074 | -86.74040 | 640 ft | 19 kts | 55° |
| 2026-04-25 00:16 | 33.57144 | -86.73920 | 642 ft | 17 kts | 53° |
| 2026-04-25 00:16 | 33.57206 | -86.73834 | 643 ft | 11 kts | 10° |
| 2026-04-25 00:16 | 33.57268 | -86.73861 | 645 ft | 5 kts | 326° |
| 2026-04-25 00:16 | 33.57269 | -86.73861 | 645 ft | 0 kts | 326° |
| 2026-04-25 00:17 | 33.57279 | -86.73869 | 645 ft | 7 kts | 324° |
| 2026-04-25 00:17 | 33.57335 | -86.73939 | 646 ft | 12 kts | 281° |
| 2026-04-25 00:17 | 33.57301 | -86.74001 | 646 ft | 30 kts | 234° |
| 2026-04-25 00:17 | 33.57031 | -86.74474 | 667 ft | 98 kts | 234° |
| 2026-04-25 00:18 | 33.56570 | -86.75262 | 784 ft | 129 kts | 234° |
| 2026-04-25 00:18 | 33.56050 | -86.76194 | 1115 ft | 135 kts | 235° |
| 2026-04-25 00:18 | 33.55556 | -86.77106 | 1606 ft | 131 kts | 234° |
| 2026-04-25 00:18 | 33.54978 | -86.78053 | 1816 ft | 145 kts | 229° |
| 2026-04-25 00:19 | 33.54293 | -86.78926 | 2074 ft | 149 kts | 221° |
| 2026-04-25 00:19 | 33.53293 | -86.79415 | 2057 ft | 169 kts | 181° |
| 2026-04-25 00:19 | 33.52142 | -86.78966 | 1983 ft | 184 kts | 155° |
| 2026-04-25 00:19 | 33.51095 | -86.78027 | 1837 ft | 193 kts | 137° |
| 2026-04-25 00:20 | 33.50185 | -86.76909 | 2046 ft | 183 kts | 136° |
| 2026-04-25 00:20 | 33.49298 | -86.75811 | 2057 ft | 186 kts | 136° |
| 2026-04-25 00:20 | 33.48319 | -86.74790 | 2049 ft | 187 kts | 147° |
| 2026-04-25 00:20 | 33.47183 | -86.74041 | 2050 ft | 187 kts | 159° |
| 2026-04-25 00:21 | 33.45935 | -86.73658 | 2052 ft | 186 kts | 176° |
| 2026-04-25 00:21 | 33.44640 | -86.73614 | 2053 ft | 187 kts | 182° |
| 2026-04-25 00:21 | 33.43338 | -86.73621 | 2051 ft | 187 kts | 181° |
| 2026-04-25 00:21 | 33.42040 | -86.73606 | 2046 ft | 186 kts | 180° |
| 2026-04-25 00:22 | 33.40747 | -86.73584 | 2046 ft | 185 kts | 181° |
| 2026-04-25 00:22 | 33.39461 | -86.73562 | 2044 ft | 184 kts | 181° |
| 2026-04-25 00:22 | 33.38608 | -86.73550 | 2045 ft | 183 kts | 181° |
| 2026-04-25 00:22 | 33.36912 | -86.73522 | 2041 ft | 185 kts | 180° |
| 2026-04-25 00:23 | 33.35620 | -86.73500 | 2044 ft | 186 kts | 180° |
| 2026-04-25 00:23 | 33.34324 | -86.73480 | 2044 ft | 187 kts | 180° |
| 2026-04-25 00:23 | 33.33439 | -86.73465 | 2047 ft | 188 kts | 180° |
| 2026-04-25 00:23 | 33.31702 | -86.73437 | 2039 ft | 188 kts | 181° |
| 2026-04-25 00:24 | 33.30835 | -86.73422 | 2036 ft | 188 kts | 181° |
| 2026-04-25 00:24 | 33.29534 | -86.73400 | 2033 ft | 185 kts | 181° |
| 2026-04-25 00:24 | 33.28242 | -86.73379 | 2041 ft | 185 kts | 181° |
| 2026-04-25 00:24 | 33.26956 | -86.73359 | 2040 ft | 185 kts | 181° |
| 2026-04-25 00:25 | 33.25668 | -86.73339 | 2038 ft | 185 kts | 180° |
| 2026-04-25 00:25 | 33.24380 | -86.73317 | 2053 ft | 186 kts | 180° |
| 2026-04-25 00:25 | 33.23110 | -86.73297 | 2255 ft | 175 kts | 180° |
| 2026-04-25 00:25 | 33.21933 | -86.73277 | 2611 ft | 164 kts | 180° |
| 2026-04-25 00:26 | 33.20815 | -86.73261 | 2971 ft | 158 kts | 180° |
| 2026-04-25 00:26 | 33.19731 | -86.73242 | 3327 ft | 153 kts | 180° |
| 2026-04-25 00:26 | 33.18675 | -86.73229 | 3679 ft | 150 kts | 183° |
| 2026-04-25 00:26 | 33.17706 | -86.73609 | 4040 ft | 148 kts | 210° |
| 2026-04-25 00:27 | 33.16816 | -86.74189 | 4406 ft | 148 kts | 207° |
| 2026-04-25 00:27 | 33.15891 | -86.74723 | 4777 ft | 147 kts | 205° |
| 2026-04-25 00:27 | 33.14962 | -86.75233 | 5136 ft | 147 kts | 205° |
| 2026-04-25 00:27 | 33.14031 | -86.75737 | 5501 ft | 148 kts | 205° |
| 2026-04-25 00:28 | 33.13086 | -86.76246 | 5865 ft | 150 kts | 205° |
| 2026-04-25 00:28 | 33.12131 | -86.76759 | 6250 ft | 151 kts | 205° |
| 2026-04-25 00:28 | 33.11169 | -86.77276 | 6603 ft | 152 kts | 205° |
| 2026-04-25 00:28 | 33.10200 | -86.77796 | 6958 ft | 153 kts | 205° |
| 2026-04-25 00:29 | 33.09241 | -86.78311 | 7316 ft | 154 kts | 205° |
| 2026-04-25 00:29 | 33.08838 | -86.78527 | 7464 ft | 154 kts | 205° |
| 2026-04-25 00:29 | 33.07854 | -86.79055 | 7833 ft | 155 kts | 206° |
| 2026-04-25 00:29 | 33.06865 | -86.79585 | 8199 ft | 156 kts | 206° |
| 2026-04-25 00:30 | 33.05882 | -86.80112 | 8567 ft | 157 kts | 206° |
| 2026-04-25 00:30 | 33.04879 | -86.80651 | 8940 ft | 158 kts | 206° |
| 2026-04-25 00:30 | 33.03871 | -86.81192 | 9324 ft | 159 kts | 207° |
| 2026-04-25 00:30 | 33.02856 | -86.81736 | 9711 ft | 160 kts | 207° |
| 2026-04-25 00:31 | 33.01824 | -86.82289 | 9967 ft | 169 kts | 207° |
| 2026-04-25 00:31 | 33.00695 | -86.82899 | 9981 ft | 186 kts | 207° |
| 2026-04-25 00:31 | 32.99478 | -86.83550 | 9980 ft | 197 kts | 206° |
| 2026-04-25 00:31 | 32.98208 | -86.84226 | 9979 ft | 203 kts | 206° |
| 2026-04-25 00:32 | 32.96908 | -86.84920 | 9974 ft | 206 kts | 206° |
| 2026-04-25 00:32 | 32.95592 | -86.85623 | 9977 ft | 208 kts | 206° |
| 2026-04-25 00:32 | 32.94267 | -86.86332 | 9974 ft | 209 kts | 206° |
| 2026-04-25 00:32 | 32.92938 | -86.87042 | 9972 ft | 210 kts | 206° |
| 2026-04-25 00:33 | 32.91602 | -86.87757 | 9964 ft | 211 kts | 206° |
| 2026-04-25 00:33 | 32.90264 | -86.88471 | 9964 ft | 211 kts | 206° |
| 2026-04-25 00:33 | 32.88928 | -86.89184 | 9960 ft | 211 kts | 206° |
| 2026-04-25 00:33 | 32.87592 | -86.89897 | 9955 ft | 211 kts | 206° |
| 2026-04-25 00:34 | 32.86255 | -86.90612 | 9952 ft | 210 kts | 206° |
| 2026-04-25 00:34 | 32.84920 | -86.91325 | 9951 ft | 210 kts | 206° |
| 2026-04-25 00:34 | 32.83583 | -86.92037 | 9946 ft | 211 kts | 206° |
| 2026-04-25 00:34 | 32.82244 | -86.92751 | 9945 ft | 211 kts | 206° |
| 2026-04-25 00:35 | 32.80922 | -86.93457 | 9941 ft | 211 kts | 206° |
| 2026-04-25 00:35 | 32.79585 | -86.94170 | 9941 ft | 211 kts | 206° |
| 2026-04-25 00:35 | 32.78241 | -86.94885 | 9937 ft | 211 kts | 206° |
| 2026-04-25 00:35 | 32.76903 | -86.95597 | 9939 ft | 211 kts | 206° |
| 2026-04-25 00:36 | 32.75562 | -86.96312 | 9939 ft | 211 kts | 206° |
| 2026-04-25 00:36 | 32.74281 | -86.96994 | 9936 ft | 210 kts | 206° |
| 2026-04-25 00:36 | 32.72972 | -86.97690 | 9934 ft | 210 kts | 206° |
| 2026-04-25 00:36 | 32.71642 | -86.98402 | 9630 ft | 209 kts | 206° |
| 2026-04-25 00:37 | 32.70335 | -86.99103 | 9175 ft | 209 kts | 206° |
| 2026-04-25 00:37 | 32.69018 | -86.99799 | 8928 ft | 200 kts | 205° |
| 2026-04-25 00:37 | 32.67797 | -87.00444 | 8917 ft | 184 kts | 206° |
| 2026-04-25 00:37 | 32.66655 | -87.01050 | 8916 ft | 175 kts | 206° |
| 2026-04-25 00:38 | 32.65505 | -87.01658 | 9009 ft | 183 kts | 206° |
| 2026-04-25 00:38 | 32.64365 | -87.02261 | 9387 ft | 176 kts | 206° |
| 2026-04-25 00:38 | 32.63262 | -87.02849 | 9764 ft | 172 kts | 207° |
| 2026-04-25 00:38 | 32.62151 | -87.03441 | 9924 ft | 182 kts | 207° |
| 2026-04-25 00:39 | 32.60955 | -87.04080 | 9934 ft | 194 kts | 206° |
| 2026-04-25 00:39 | 32.59716 | -87.04736 | 9942 ft | 200 kts | 206° |
| 2026-04-25 00:39 | 32.58472 | -87.05392 | 10236 ft | 190 kts | 206° |
| 2026-04-25 00:39 | 32.57274 | -87.06025 | 10592 ft | 183 kts | 207° |
| 2026-04-25 00:40 | 32.56139 | -87.06627 | 10909 ft | 181 kts | 207° |
| 2026-04-25 00:40 | 32.54950 | -87.07261 | 10933 ft | 194 kts | 207° |
| 2026-04-25 00:40 | 32.53688 | -87.07933 | 10942 ft | 202 kts | 207° |
| 2026-04-25 00:40 | 32.52383 | -87.08621 | 10950 ft | 207 kts | 207° |
| 2026-04-25 00:41 | 32.51056 | -87.09321 | 10950 ft | 210 kts | 207° |
| 2026-04-25 00:41 | 32.49717 | -87.10029 | 10953 ft | 212 kts | 207° |
| 2026-04-25 00:41 | 32.48369 | -87.10741 | 10955 ft | 213 kts | 207° |
| 2026-04-25 00:41 | 32.47015 | -87.11457 | 10958 ft | 213 kts | 207° |
| 2026-04-25 00:42 | 32.45659 | -87.12174 | 10954 ft | 213 kts | 207° |
| 2026-04-25 00:42 | 32.44306 | -87.12890 | 10955 ft | 209 kts | 207° |
| 2026-04-25 00:42 | 32.42973 | -87.13594 | 10956 ft | 211 kts | 207° |
| 2026-04-25 00:42 | 32.41653 | -87.14290 | 10954 ft | 209 kts | 207° |
| 2026-04-25 00:43 | 32.40327 | -87.14991 | 10952 ft | 208 kts | 207° |
| 2026-04-25 00:43 | 32.39008 | -87.15687 | 10956 ft | 207 kts | 207° |
| 2026-04-25 00:43 | 32.37692 | -87.16382 | 10957 ft | 207 kts | 207° |
| 2026-04-25 00:43 | 32.36378 | -87.17075 | 10953 ft | 207 kts | 207° |
| 2026-04-25 00:44 | 32.35062 | -87.17769 | 10953 ft | 207 kts | 207° |
| 2026-04-25 00:44 | 32.33747 | -87.18461 | 10952 ft | 207 kts | 207° |
| 2026-04-25 00:44 | 32.32433 | -87.19154 | 10951 ft | 207 kts | 207° |
| 2026-04-25 00:44 | 32.31118 | -87.19846 | 10948 ft | 207 kts | 207° |
| 2026-04-25 00:45 | 32.29806 | -87.20537 | 10945 ft | 207 kts | 207° |
| 2026-04-25 00:45 | 32.28491 | -87.21230 | 10944 ft | 207 kts | 207° |
| 2026-04-25 00:45 | 32.27177 | -87.21921 | 10946 ft | 207 kts | 207° |
| 2026-04-25 00:45 | 32.25863 | -87.22612 | 10942 ft | 207 kts | 207° |
| 2026-04-25 00:46 | 32.24547 | -87.23304 | 10938 ft | 207 kts | 207° |
| 2026-04-25 00:46 | 32.23235 | -87.23994 | 10930 ft | 207 kts | 207° |
| 2026-04-25 00:46 | 32.20598 | -87.25380 | 10920 ft | 207 kts | 207° |
| 2026-04-25 00:47 | 32.19299 | -87.26062 | 10921 ft | 207 kts | 207° |
| 2026-04-25 00:47 | 32.17984 | -87.26752 | 10913 ft | 207 kts | 207° |
| 2026-04-25 00:47 | 32.16666 | -87.27444 | 10907 ft | 207 kts | 207° |
| 2026-04-25 00:47 | 32.15350 | -87.28135 | 10905 ft | 207 kts | 207° |
| 2026-04-25 00:48 | 32.14036 | -87.28824 | 10900 ft | 207 kts | 207° |
| 2026-04-25 00:48 | 32.12720 | -87.29513 | 10894 ft | 207 kts | 207° |
| 2026-04-25 00:48 | 32.11403 | -87.30204 | 10892 ft | 207 kts | 207° |
| 2026-04-25 00:48 | 32.10089 | -87.30893 | 10888 ft | 207 kts | 207° |
| 2026-04-25 00:49 | 32.08772 | -87.31583 | 10888 ft | 207 kts | 207° |
| 2026-04-25 00:49 | 32.07452 | -87.32274 | 10894 ft | 207 kts | 207° |
| 2026-04-25 00:49 | 32.06137 | -87.32962 | 10893 ft | 207 kts | 207° |
| 2026-04-25 00:49 | 32.04820 | -87.33652 | 10900 ft | 207 kts | 207° |
| 2026-04-25 00:50 | 32.03505 | -87.34340 | 10897 ft | 207 kts | 207° |
| 2026-04-25 00:50 | 32.02188 | -87.35029 | 10897 ft | 207 kts | 207° |
| 2026-04-25 00:50 | 32.00888 | -87.35708 | 10902 ft | 207 kts | 207° |
| 2026-04-25 00:50 | 31.99567 | -87.36399 | 10908 ft | 207 kts | 207° |
| 2026-04-25 00:51 | 31.98252 | -87.37086 | 10909 ft | 207 kts | 207° |
| 2026-04-25 00:51 | 31.96935 | -87.37774 | 10912 ft | 207 kts | 207° |
| 2026-04-25 00:51 | 31.95617 | -87.38462 | 10918 ft | 207 kts | 207° |
| 2026-04-25 00:51 | 31.94300 | -87.39150 | 10920 ft | 207 kts | 207° |
| 2026-04-25 00:52 | 31.92983 | -87.39838 | 10924 ft | 207 kts | 207° |
| 2026-04-25 00:52 | 31.91666 | -87.40525 | 10924 ft | 207 kts | 207° |
| 2026-04-25 00:52 | 31.90348 | -87.41212 | 10930 ft | 207 kts | 207° |
| 2026-04-25 00:52 | 31.89031 | -87.41899 | 10931 ft | 207 kts | 207° |
| 2026-04-25 00:53 | 31.87715 | -87.42585 | 10934 ft | 207 kts | 207° |
| 2026-04-25 00:53 | 31.86400 | -87.43270 | 10935 ft | 207 kts | 207° |
| 2026-04-25 00:53 | 31.85085 | -87.43955 | 10942 ft | 207 kts | 207° |
| 2026-04-25 00:53 | 31.83766 | -87.44642 | 10948 ft | 207 kts | 207° |
| 2026-04-25 00:54 | 31.82462 | -87.45321 | 10996 ft | 205 kts | 207° |
| 2026-04-25 00:54 | 31.81155 | -87.46000 | 10999 ft | 206 kts | 207° |
| 2026-04-25 00:54 | 31.79862 | -87.46675 | 11001 ft | 206 kts | 207° |
| 2026-04-25 00:54 | 31.78547 | -87.47358 | 11004 ft | 207 kts | 207° |
| 2026-04-25 00:55 | 31.77230 | -87.48043 | 11006 ft | 207 kts | 207° |
| 2026-04-25 00:55 | 31.75910 | -87.48729 | 11007 ft | 207 kts | 207° |
| 2026-04-25 00:55 | 31.74592 | -87.49413 | 11010 ft | 207 kts | 207° |
| 2026-04-25 00:55 | 31.73277 | -87.50096 | 11010 ft | 207 kts | 207° |
| 2026-04-25 00:56 | 31.71958 | -87.50781 | 11008 ft | 207 kts | 207° |
| 2026-04-25 00:56 | 31.70640 | -87.51465 | 11011 ft | 207 kts | 207° |
| 2026-04-25 00:56 | 31.69321 | -87.52150 | 11014 ft | 207 kts | 207° |
| 2026-04-25 00:56 | 31.68003 | -87.52833 | 11014 ft | 207 kts | 207° |
| 2026-04-25 00:57 | 31.66682 | -87.53519 | 11011 ft | 207 kts | 207° |
| 2026-04-25 00:57 | 31.65360 | -87.54204 | 11010 ft | 207 kts | 207° |
| 2026-04-25 00:57 | 31.64040 | -87.54888 | 11009 ft | 208 kts | 207° |
| 2026-04-25 00:57 | 31.62717 | -87.55574 | 11009 ft | 208 kts | 207° |
| 2026-04-25 00:58 | 31.61397 | -87.56257 | 11009 ft | 207 kts | 207° |
| 2026-04-25 00:58 | 31.60074 | -87.56943 | 11011 ft | 208 kts | 207° |
| 2026-04-25 00:58 | 31.58771 | -87.57617 | 11012 ft | 207 kts | 207° |
| 2026-04-25 00:58 | 31.57446 | -87.58302 | 11010 ft | 208 kts | 207° |
| 2026-04-25 00:59 | 31.56122 | -87.58988 | 11007 ft | 208 kts | 207° |
| 2026-04-25 00:59 | 31.54801 | -87.59668 | 11013 ft | 207 kts | 207° |
| 2026-04-25 00:59 | 31.53485 | -87.60351 | 11010 ft | 207 kts | 207° |
| 2026-04-25 00:59 | 31.52164 | -87.61036 | 11013 ft | 207 kts | 207° |
| 2026-04-25 01:00 | 31.50843 | -87.61717 | 11013 ft | 207 kts | 207° |
| 2026-04-25 01:00 | 31.49524 | -87.62397 | 11014 ft | 207 kts | 207° |
| 2026-04-25 01:00 | 31.48206 | -87.63078 | 11014 ft | 207 kts | 207° |
| 2026-04-25 01:00 | 31.46951 | -87.63872 | 11008 ft | 204 kts | 218° |
| 2026-04-25 01:01 | 31.45813 | -87.64867 | 11015 ft | 204 kts | 220° |
| 2026-04-25 01:01 | 31.44649 | -87.65825 | 11013 ft | 204 kts | 217° |
| 2026-04-25 01:01 | 31.43480 | -87.66734 | 11014 ft | 205 kts | 217° |
| 2026-04-25 01:01 | 31.42293 | -87.67654 | 11013 ft | 205 kts | 217° |
| 2026-04-25 01:02 | 31.41108 | -87.68579 | 11012 ft | 205 kts | 217° |
| 2026-04-25 01:02 | 31.39924 | -87.69504 | 11019 ft | 205 kts | 217° |
| 2026-04-25 01:02 | 31.38739 | -87.70430 | 11022 ft | 205 kts | 217° |
| 2026-04-25 01:02 | 31.37555 | -87.71354 | 11020 ft | 205 kts | 217° |
| 2026-04-25 01:03 | 31.36369 | -87.72278 | 11018 ft | 205 kts | 217° |
| 2026-04-25 01:03 | 31.35184 | -87.73203 | 11015 ft | 204 kts | 217° |
| 2026-04-25 01:03 | 31.34000 | -87.74126 | 11016 ft | 204 kts | 217° |
| 2026-04-25 01:03 | 31.32817 | -87.75049 | 11015 ft | 204 kts | 217° |
| 2026-04-25 01:04 | 31.31634 | -87.75970 | 11015 ft | 204 kts | 217° |
| 2026-04-25 01:04 | 31.30451 | -87.76892 | 11017 ft | 204 kts | 217° |
| 2026-04-25 01:04 | 31.29267 | -87.77814 | 11017 ft | 204 kts | 217° |
| 2026-04-25 01:04 | 31.28100 | -87.78723 | 11018 ft | 204 kts | 217° |
| 2026-04-25 01:05 | 31.26917 | -87.79643 | 11015 ft | 204 kts | 217° |
| 2026-04-25 01:05 | 31.25735 | -87.80563 | 11014 ft | 204 kts | 217° |
| 2026-04-25 01:05 | 31.24553 | -87.81483 | 11014 ft | 204 kts | 217° |
| 2026-04-25 01:05 | 31.23368 | -87.82404 | 11014 ft | 204 kts | 217° |
| 2026-04-25 01:06 | 31.22189 | -87.83320 | 11014 ft | 204 kts | 217° |
| 2026-04-25 01:06 | 31.21007 | -87.84239 | 11015 ft | 204 kts | 217° |
| 2026-04-25 01:06 | 31.19824 | -87.85158 | 11014 ft | 204 kts | 217° |
| 2026-04-25 01:06 | 31.18642 | -87.86076 | 11013 ft | 204 kts | 217° |
| 2026-04-25 01:07 | 31.17462 | -87.86993 | 11013 ft | 204 kts | 217° |
| 2026-04-25 01:07 | 31.16280 | -87.87910 | 11011 ft | 204 kts | 217° |
| 2026-04-25 01:07 | 31.15100 | -87.88826 | 11011 ft | 204 kts | 217° |
| 2026-04-25 01:07 | 31.13917 | -87.89743 | 11014 ft | 204 kts | 217° |
| 2026-04-25 01:08 | 31.12734 | -87.90661 | 11014 ft | 204 kts | 217° |
| 2026-04-25 01:08 | 31.11552 | -87.91577 | 11011 ft | 204 kts | 217° |
| 2026-04-25 01:08 | 31.10368 | -87.92495 | 11013 ft | 204 kts | 217° |
| 2026-04-25 01:08 | 31.09197 | -87.93402 | 11013 ft | 204 kts | 217° |
| 2026-04-25 01:09 | 31.08011 | -87.94320 | 11016 ft | 204 kts | 217° |
| 2026-04-25 01:09 | 31.06826 | -87.95238 | 11012 ft | 204 kts | 217° |
| 2026-04-25 01:09 | 31.05639 | -87.96157 | 11013 ft | 204 kts | 217° |
| 2026-04-25 01:09 | 31.04456 | -87.97072 | 11013 ft | 199 kts | 217° |
| 2026-04-25 01:10 | 31.03427 | -87.97871 | 11005 ft | 157 kts | 218° |
| 2026-04-25 01:10 | 31.02565 | -87.98536 | 10721 ft | 150 kts | 218° |
| 2026-04-25 01:10 | 31.01674 | -87.99231 | 10245 ft | 163 kts | 217° |
| 2026-04-25 01:10 | 31.01025 | -87.99730 | 9939 ft | 173 kts | 216° |
| 2026-04-25 01:11 | 30.99993 | -88.00528 | 9464 ft | 183 kts | 216° |
| 2026-04-25 01:11 | 30.98546 | -88.01646 | 8801 ft | 189 kts | 216° |
| 2026-04-25 01:11 | 30.97820 | -88.02207 | 8482 ft | 190 kts | 216° |
| 2026-04-25 01:11 | 30.96354 | -88.03339 | 7844 ft | 191 kts | 215° |
| 2026-04-25 01:12 | 30.95606 | -88.03917 | 7521 ft | 191 kts | 215° |
| 2026-04-25 01:12 | 30.94498 | -88.04772 | 7049 ft | 188 kts | 214° |
| 2026-04-25 01:12 | 30.93436 | -88.05593 | 6496 ft | 183 kts | 214° |
| 2026-04-25 01:12 | 30.92380 | -88.06410 | 5769 ft | 180 kts | 213° |
| 2026-04-25 01:13 | 30.91339 | -88.07211 | 5044 ft | 178 kts | 213° |
| 2026-04-25 01:13 | 30.90311 | -88.08003 | 4309 ft | 176 kts | 212° |
| 2026-04-25 01:13 | 30.89297 | -88.08785 | 3583 ft | 173 kts | 212° |
| 2026-04-25 01:13 | 30.88302 | -88.09551 | 3042 ft | 167 kts | 212° |
| 2026-04-25 01:14 | 30.87419 | -88.10231 | 3008 ft | 139 kts | 211° |
| 2026-04-25 01:14 | 30.86576 | -88.10868 | 3011 ft | 155 kts | 211° |
| 2026-04-25 01:14 | 30.85632 | -88.11593 | 3020 ft | 168 kts | 212° |
| 2026-04-25 01:14 | 30.84635 | -88.12366 | 3035 ft | 175 kts | 212° |
| 2026-04-25 01:15 | 30.83620 | -88.13149 | 3033 ft | 179 kts | 211° |
| 2026-04-25 01:15 | 30.82571 | -88.13955 | 3033 ft | 181 kts | 211° |
| 2026-04-25 01:15 | 30.81511 | -88.14767 | 3036 ft | 183 kts | 212° |
| 2026-04-25 01:15 | 30.80453 | -88.15584 | 3035 ft | 183 kts | 212° |
| 2026-04-25 01:16 | 30.79670 | -88.16721 | 3023 ft | 187 kts | 250° |
| 2026-04-25 01:16 | 30.79773 | -88.18228 | 3021 ft | 193 kts | 287° |
| 2026-04-25 01:16 | 30.80060 | -88.19735 | 3028 ft | 190 kts | 275° |
| 2026-04-25 01:16 | 30.80244 | -88.21254 | 3034 ft | 190 kts | 275° |
| 2026-04-25 01:17 | 30.80431 | -88.22777 | 3032 ft | 190 kts | 274° |
| 2026-04-25 01:17 | 30.80222 | -88.24248 | 3034 ft | 185 kts | 245° |
| 2026-04-25 01:17 | 30.79703 | -88.25618 | 3033 ft | 186 kts | 243° |
| 2026-04-25 01:17 | 30.79174 | -88.26988 | 3039 ft | 186 kts | 242° |
| 2026-04-25 01:18 | 30.78566 | -88.28285 | 3032 ft | 170 kts | 224° |
| 2026-04-25 01:18 | 30.77712 | -88.28932 | 3002 ft | 131 kts | 207° |
| 2026-04-25 01:18 | 30.77005 | -88.29400 | 2959 ft | 107 kts | 205° |
| 2026-04-25 01:18 | 30.76372 | -88.29691 | 2800 ft | 89 kts | 192° |
| 2026-04-25 01:19 | 30.75750 | -88.29729 | 2510 ft | 88 kts | 171° |
| 2026-04-25 01:19 | 30.75176 | -88.29498 | 2195 ft | 89 kts | 150° |
| 2026-04-25 01:19 | 30.74680 | -88.29074 | 1919 ft | 87 kts | 143° |
| 2026-04-25 01:19 | 30.74221 | -88.28666 | 1685 ft | 82 kts | 147° |
| 2026-04-25 01:20 | 30.73761 | -88.28269 | 1407 ft | 85 kts | 147° |
| 2026-04-25 01:20 | 30.73261 | -88.27878 | 1201 ft | 87 kts | 149° |
| 2026-04-25 01:20 | 30.72765 | -88.27499 | 1018 ft | 85 kts | 146° |
| 2026-04-25 01:20 | 30.72301 | -88.27092 | 835 ft | 82 kts | 143° |
| 2026-04-25 01:21 | 30.71812 | -88.26703 | 691 ft | 86 kts | 144° |
| 2026-04-25 01:21 | 30.71328 | -88.26311 | 549 ft | 84 kts | 141° |
| 2026-04-25 01:21 | 30.70852 | -88.25906 | 432 ft | 87 kts | 143° |
| 2026-04-25 01:21 | 30.70355 | -88.25497 | 277 ft | 86 kts | 144° |
| 2026-04-25 01:22 | 30.69900 | -88.25121 | 215 ft | 71 kts | 143° |
| 2026-04-25 01:22 | 30.69566 | -88.24841 | 215 ft | 49 kts | 143° |
| 2026-04-25 01:22 | 30.69333 | -88.24649 | 218 ft | 37 kts | 145° |
| 2026-04-25 01:22 | 30.69040 | -88.24406 | 214 ft | 61 kts | 145° |
| 2026-04-25 01:23 | 30.68721 | -88.24177 | 214 ft | 43 kts | 183° |
| 2026-04-25 01:23 | 30.68546 | -88.24221 | 217 ft | 22 kts | 200° |
| 2026-04-25 01:23 | 30.68351 | -88.24281 | 220 ft | 30 kts | 154° |
| 2026-04-25 01:23 | 30.68315 | -88.24424 | 219 ft | 37 kts | 277° |
| 2026-04-25 01:24 | 30.68243 | -88.24661 | 220 ft | 29 kts | 243° |
| 2026-04-25 01:24 | 30.68230 | -88.24750 | 223 ft | 0 kts | 334° |